Time;durP1;ratioP1;P1;durP2;ratioP2;P2;SDS_P1;SDS_P2;PMS_P1;PMS_P2;Temp;Humidity;BMP_temperature;BMP_pressure;BME280_temperature;BME280_humidity;BME280_pressure;Samples;Min_cycle;Max_cycle;Signal;HPM_P1;HPM_P2
2022/11/23 00:00:10;;;;;;;9.17;1.93;;;6.50;64.20;;;;;;5089724;27;46488;-68
2022/11/23 00:02:35;;;;;;;4.20;1.87;;;6.50;64.30;;;;;;5088771;27;45751;-69
2022/11/23 00:05:01;;;;;;;6.70;1.90;;;6.50;64.20;;;;;;5084818;27;45915;-68
2022/11/23 00:07:27;;;;;;;6.90;2.30;;;6.50;64.40;;;;;;5084486;27;46409;-69
2022/11/23 00:09:52;;;;;;;4.53;1.77;;;6.50;64.40;;;;;;5086972;27;47344;-68
2022/11/23 00:12:18;;;;;;;3.37;1.63;;;6.50;64.40;;;;;;5085290;27;45924;-68
2022/11/23 00:14:43;;;;;;;16.83;2.00;;;6.50;63.40;;;;;;5085195;27;46434;-67
2022/11/23 00:17:09;;;;;;;4.33;1.70;;;6.50;64.40;;;;;;5086991;27;46288;-68
2022/11/23 00:19:34;;;;;;;5.07;1.57;;;6.50;64.20;;;;;;5088242;27;46424;-68
2022/11/23 00:22:00;;;;;;;9.93;2.03;;;6.50;64.30;;;;;;5088501;27;46391;-68
2022/11/23 00:24:26;;;;;;;7.53;1.70;;;6.50;63.30;;;;;;5084457;27;46435;-68
2022/11/23 00:26:51;;;;;;;2.60;1.37;;;6.50;64.30;;;;;;5088442;27;46334;-69
2022/11/23 00:29:17;;;;;;;5.20;1.70;;;6.50;64.30;;;;;;5083754;27;47280;-69
2022/11/23 00:31:42;;;;;;;6.73;1.70;;;6.50;64.30;;;;;;5089143;27;46267;-68
2022/11/23 00:34:08;;;;;;;42.70;3.40;;;6.50;63.50;;;;;;5088691;27;46396;-68
2022/11/23 00:36:33;;;;;;;6.10;1.87;;;6.50;64.30;;;;;;5088007;27;46533;-67
2022/11/23 00:38:59;;;;;;;3.90;1.47;;;6.50;64.20;;;;;;5085325;27;46438;-69
2022/11/23 00:41:26;;;;;;;3.67;2.17;;;6.50;64.30;;;;;;5086206;27;46479;-69
2022/11/23 00:43:52;;;;;;;6.77;2.07;;;6.50;63.40;;;;;;5086811;27;46405;-68
2022/11/23 00:46:20;;;;;;;4.33;1.57;;;6.40;64.40;;;;;;5085516;27;46489;-68
2022/11/23 00:48:48;;;;;;;3.60;1.40;;;6.40;64.50;;;;;;5086035;27;47060;-68
2022/11/23 00:51:17;;;;;;;5.63;1.50;;;6.40;64.50;;;;;;5084583;27;46523;-68
2022/11/23 00:53:43;;;;;;;6.10;1.63;;;6.40;64.40;;;;;;5089307;27;46346;-69
2022/11/23 00:56:09;;;;;;;3.17;1.47;;;6.40;63.40;;;;;;5089359;27;46989;-69
2022/11/23 00:58:37;;;;;;;6.20;1.93;;;6.40;64.40;;;;;;5086650;27;46399;-68
2022/11/23 01:01:11;;;;;;;2.87;1.63;;;6.30;64.30;;;;;;5084179;27;46299;-69
2022/11/23 01:03:39;;;;;;;6.57;1.50;;;6.30;64.40;;;;;;5082515;27;46448;-68
2022/11/23 01:06:08;;;;;;;6.57;1.60;;;6.30;64.50;;;;;;5070039;27;46468;-68
2022/11/23 01:08:35;;;;;;;9.37;1.33;;;6.30;64.60;;;;;;5089722;27;46617;-67
2022/11/23 01:11:03;;;;;;;3.00;1.60;;;6.30;64.60;;;;;;5082834;27;46602;-67
2022/11/23 01:13:30;;;;;;;3.83;1.60;;;6.20;64.60;;;;;;5082578;27;46536;-68
2022/11/23 01:15:55;;;;;;;3.93;1.47;;;6.20;64.70;;;;;;5082373;27;46712;-69
2022/11/23 01:18:22;;;;;;;1.77;1.37;;;6.10;64.70;;;;;;5088204;27;46078;-68
2022/11/23 01:20:47;;;;;;;3.20;1.33;;;6.10;64.90;;;;;;5080404;27;45866;-69
2022/11/23 01:23:13;;;;;;;2.80;1.53;;;6.10;65.10;;;;;;5086655;27;45921;-68
2022/11/23 01:25:39;;;;;;;3.27;1.40;;;6.00;65.20;;;;;;5086296;27;46415;-67
2022/11/23 01:28:05;;;;;;;4.70;1.20;;;6.00;65.20;;;;;;5087024;27;46491;-69
2022/11/23 01:30:30;;;;;;;3.13;1.30;;;6.00;65.20;;;;;;5084209;27;46448;-68
2022/11/23 01:32:56;;;;;;;4.70;1.53;;;6.00;65.10;;;;;;5084064;27;46369;-68
2022/11/23 01:35:21;;;;;;;2.63;1.70;;;6.00;65.30;;;;;;5115708;27;46344;-68
2022/11/23 01:37:47;;;;;;;3.47;1.50;;;5.90;65.20;;;;;;5085496;27;47336;-69
2022/11/23 01:40:12;;;;;;;1.80;1.17;;;5.90;65.10;;;;;;5084055;27;46476;-68
2022/11/23 01:42:59;;;;;;;3.40;1.20;;;5.90;65.10;;;;;;5085201;27;46384;-68
2022/11/23 01:45:38;;;;;;;4.90;1.70;;;5.90;64.10;;;;;;5085308;27;46402;-69
2022/11/23 01:48:13;;;;;;;3.23;1.20;;;5.80;65.20;;;;;;5082016;27;46978;-68
2022/11/23 01:50:40;;;;;;;6.50;1.87;;;5.80;65.30;;;;;;5084900;27;46639;-69
2022/11/23 01:53:06;;;;;;;3.97;1.60;;;5.80;65.20;;;;;;5088394;27;46510;-68
2022/11/23 01:55:32;;;;;;;4.80;1.60;;;5.80;65.20;;;;;;5085155;27;46539;-69
2022/11/23 01:57:58;;;;;;;6.40;1.80;;;5.80;65.20;;;;;;5081449;27;48460;-68
2022/11/23 02:00:24;;;;;;;5.47;2.10;;;5.80;65.10;;;;;;5073383;27;46819;-68
2022/11/23 02:02:55;;;;;;;6.10;2.13;;;5.80;64.90;;;;;;5086507;27;46432;-68
2022/11/23 02:05:24;;;;;;;8.23;1.40;;;5.80;63.90;;;;;;5084226;27;45904;-67
2022/11/23 02:07:50;;;;;;;3.30;1.33;;;5.80;66.20;;;;;;5085826;27;46091;-69
2022/11/23 02:10:17;;;;;;;4.63;1.30;;;5.80;65.00;;;;;;5084474;27;46416;-67
2022/11/23 02:12:42;;;;;;;4.40;1.83;;;5.80;64.90;;;;;;5089927;27;46341;-68
2022/11/23 02:15:08;;;;;;;6.17;1.23;;;5.80;65.00;;;;;;5084081;27;46750;-68
2022/11/23 02:17:34;;;;;;;5.10;1.60;;;5.80;65.00;;;;;;5086933;27;48770;-69
2022/11/23 02:20:08;;;;;;;3.60;1.10;;;5.80;65.10;;;;;;5082482;27;46291;-68
2022/11/23 02:23:08;;;;;;;4.50;1.70;;;5.90;64.80;;;;;;5086552;27;45955;-68
2022/11/23 02:25:37;;;;;;;5.10;1.53;;;6.00;64.50;;;;;;5082128;27;46421;-70
2022/11/23 02:28:02;;;;;;;2.67;1.60;;;6.00;64.30;;;;;;5085494;27;48030;-68
2022/11/23 02:30:30;;;;;;;3.80;1.47;;;6.00;64.10;;;;;;5086854;27;45884;-68
2022/11/23 02:32:56;;;;;;;6.13;1.93;;;6.00;65.30;;;;;;5082663;27;46505;-69
2022/11/23 02:35:21;;;;;;;4.47;1.37;;;6.00;64.10;;;;;;5082937;27;46204;-68
2022/11/23 02:37:48;;;;;;;4.33;1.90;;;6.00;64.10;;;;;;5082308;27;46543;-69
2022/11/23 02:40:40;;;;;;;3.30;1.67;;;6.00;64.00;;;;;;5082827;27;46432;-68
2022/11/23 02:43:05;;;;;;;5.57;1.70;;;6.00;64.00;;;;;;5084216;27;46040;-69
2022/11/23 02:45:49;;;;;;;6.47;1.70;;;6.00;64.10;;;;;;5084728;27;46675;-68
2022/11/23 02:48:15;;;;;;;3.23;1.70;;;6.00;64.10;;;;;;5082555;27;47152;-68
2022/11/23 02:50:41;;;;;;;6.37;2.23;;;6.00;64.10;;;;;;5084820;27;46262;-69
2022/11/23 02:53:07;;;;;;;4.87;2.17;;;6.00;64.10;;;;;;5084081;27;45929;-69
2022/11/23 02:55:32;;;;;;;5.77;2.23;;;6.00;63.20;;;;;;5079787;27;46225;-68
2022/11/23 02:57:58;;;;;;;4.50;2.27;;;6.00;64.20;;;;;;5079947;27;46410;-69
2022/11/23 03:00:23;;;;;;;4.70;2.07;;;6.00;64.30;;;;;;5085210;27;46356;-68
2022/11/23 03:02:49;;;;;;;4.50;1.90;;;6.00;64.30;;;;;;5082697;27;46469;-69
2022/11/23 03:05:15;;;;;;;6.73;1.83;;;6.00;64.20;;;;;;5083376;27;46397;-69
2022/11/23 03:07:40;;;;;;;2.20;1.60;;;6.00;64.20;;;;;;5080977;27;47744;-68
2022/11/23 03:10:07;;;;;;;14.13;3.37;;;6.00;64.10;;;;;;5082543;27;46496;-69
2022/11/23 03:12:32;;;;;;;6.40;3.00;;;6.10;64.10;;;;;;5088522;27;46451;-68
2022/11/23 03:14:58;;;;;;;7.60;4.30;;;6.00;64.20;;;;;;5086425;27;46444;-69
2022/11/23 03:17:23;;;;;;;8.73;4.70;;;6.00;64.30;;;;;;5087664;27;47632;-68
2022/11/23 03:19:49;;;;;;;11.57;5.00;;;6.00;64.60;;;;;;5086155;27;46653;-69
2022/11/23 03:22:15;;;;;;;2.43;1.40;;;6.00;64.70;;;;;;5087540;27;46794;-69
2022/11/23 03:24:40;;;;;;;4.17;1.70;;;6.00;64.70;;;;;;5086168;27;46049;-68
2022/11/23 03:27:06;;;;;;;7.23;2.27;;;6.00;64.90;;;;;;5089959;27;46585;-69
2022/11/23 03:29:31;;;;;;;5.40;2.20;;;5.90;64.90;;;;;;5085540;27;46495;-69
2022/11/23 03:31:57;;;;;;;3.90;2.20;;;5.90;65.00;;;;;;5085495;27;46389;-69
2022/11/23 03:34:23;;;;;;;3.60;2.23;;;;;;;;;;5092105;27;46697;-69
2022/11/23 03:36:49;;;;;;;4.87;2.20;;;5.90;64.20;;;;;;5087265;27;47240;-70
2022/11/23 03:39:14;;;;;;;11.00;3.57;;;5.90;65.40;;;;;;5088814;27;45873;-69
2022/11/23 03:41:40;;;;;;;8.37;3.20;;;5.90;65.40;;;;;;5082750;27;45958;-69
2022/11/23 03:44:06;;;;;;;9.23;3.60;;;5.80;64.50;;;;;;5085635;27;46526;-69
2022/11/23 03:46:31;;;;;;;10.97;3.67;;;5.80;65.40;;;;;;5088677;27;46717;-69
2022/11/23 03:48:57;;;;;;;6.60;3.10;;;5.80;65.60;;;;;;5085787;27;46621;-69
2022/11/23 03:51:23;;;;;;;13.23;3.43;;;5.80;65.70;;;;;;5088231;27;46386;-69
2022/11/23 03:53:48;;;;;;;5.90;2.40;;;5.90;65.40;;;;;;5085195;27;46784;-70
2022/11/23 03:56:14;;;;;;;2.97;1.93;;;5.90;65.30;;;;;;5087105;27;46362;-70
2022/11/23 03:58:40;;;;;;;3.10;1.63;;;5.90;65.30;;;;;;5084949;27;46398;-69
2022/11/23 04:01:06;;;;;;;3.90;1.80;;;5.90;65.10;;;;;;5088898;27;46361;-69
2022/11/23 04:03:32;;;;;;;6.40;1.80;;;6.00;65.10;;;;;;5084058;27;46471;-68
2022/11/23 04:05:59;;;;;;;6.10;1.90;;;6.00;63.80;;;;;;5086453;27;46348;-69
2022/11/23 04:08:24;;;;;;;4.53;1.70;;;6.00;64.70;;;;;;5083463;27;46543;-69
2022/11/23 04:10:50;;;;;;;4.70;1.93;;;6.00;64.80;;;;;;5085806;27;46487;-69
2022/11/23 04:13:15;;;;;;;5.40;2.17;;;6.00;64.80;;;;;;5085198;27;46405;-69
2022/11/23 04:15:41;;;;;;;5.20;1.90;;;6.00;63.80;;;;;;5084848;27;46451;-71
2022/11/23 04:18:07;;;;;;;7.17;2.87;;;6.00;64.90;;;;;;5087200;27;46621;-69
2022/11/23 04:20:32;;;;;;;8.57;2.20;;;6.00;64.90;;;;;;5085459;27;46724;-69
2022/11/23 04:22:58;;;;;;;3.30;2.00;;;6.00;64.90;;;;;;5088776;27;46298;-69
2022/11/23 04:25:23;;;;;;;13.10;1.70;;;6.00;63.90;;;;;;5089158;27;46496;-70
2022/11/23 04:27:49;;;;;;;3.70;1.90;;;6.00;65.10;;;;;;5088362;27;46522;-71
2022/11/23 04:30:14;;;;;;;7.27;1.60;;;6.00;65.10;;;;;;5087747;27;45972;-70
2022/11/23 04:32:43;;;;;;;2.90;1.60;;;6.00;65.00;;;;;;5085373;27;45903;-69
2022/11/23 04:35:10;;;;;;;7.70;1.60;;;6.00;63.70;;;;;;5084931;27;46400;-71
2022/11/23 04:37:35;;;;;;;4.60;1.97;;;6.00;64.80;;;;;;5087848;27;46692;-70
2022/11/23 04:40:01;;;;;;;3.77;1.50;;;6.00;64.90;;;;;;5085002;27;46437;-71
2022/11/23 04:42:27;;;;;;;4.07;1.97;;;6.00;64.80;;;;;;5086084;27;46641;-69
2022/11/23 04:44:52;;;;;;;5.00;1.70;;;6.00;63.60;;;;;;5085890;27;46526;-70
2022/11/23 04:47:18;;;;;;;2.07;1.40;;;6.00;64.60;;;;;;5087281;27;46388;-70
2022/11/23 04:49:44;;;;;;;5.03;2.53;;;6.00;64.70;;;;;;5085948;27;46540;-70
2022/11/23 04:52:09;;;;;;;4.20;1.73;;;6.10;64.90;;;;;;5090904;27;46396;-69
2022/11/23 04:54:35;;;;;;;5.00;1.80;;;6.10;63.80;;;;;;5087594;27;46656;-69
2022/11/23 04:57:00;;;;;;;2.43;1.90;;;6.10;64.90;;;;;;5087525;27;46379;-70
2022/11/23 04:59:26;;;;;;;3.60;1.47;;;6.00;64.70;;;;;;5084435;27;45880;-69
2022/11/23 05:01:52;;;;;;;3.90;1.63;;;6.10;64.70;;;;;;5084613;27;46627;-71
2022/11/23 05:04:18;;;;;;;3.50;1.93;;;6.10;64.60;;;;;;5084222;27;46898;-70
2022/11/23 05:06:45;;;;;;;3.13;2.10;;;6.10;64.70;;;;;;5081059;27;46474;-70
2022/11/23 05:09:11;;;;;;;6.87;2.50;;;6.00;64.60;;;;;;5085055;27;46149;-69
2022/11/23 05:11:36;;;;;;;4.10;2.40;;;6.00;64.80;;;;;;5085090;27;46472;-69
2022/11/23 05:14:02;;;;;;;2.90;1.87;;;6.00;64.70;;;;;;5080121;27;47260;-69
2022/11/23 05:16:28;;;;;;;3.70;2.10;;;6.00;64.60;;;;;;5084958;27;46428;-68
2022/11/23 05:18:53;;;;;;;6.60;2.37;;;6.00;64.60;;;;;;5086735;27;46587;-69
2022/11/23 05:21:19;;;;;;;9.23;4.50;;;6.00;64.60;;;;;;5083509;27;46369;-69
2022/11/23 05:23:45;;;;;;;78.13;28.73;;;6.10;64.70;;;;;;5087339;27;46817;-70
2022/11/23 05:26:11;;;;;;;11.73;4.57;;;6.10;63.50;;;;;;5085765;27;45877;-69
2022/11/23 05:28:37;;;;;;;29.27;12.43;;;6.20;64.60;;;;;;5090117;27;45937;-69
2022/11/23 05:31:03;;;;;;;3.20;1.70;;;6.30;63.60;;;;;;5087720;27;46374;-69
2022/11/23 05:33:29;;;;;;;4.07;1.90;;;6.30;64.80;;;;;;5085293;27;46375;-70
2022/11/23 05:35:54;;;;;;;4.67;2.20;;;6.20;63.50;;;;;;5086751;27;46735;-69
2022/11/23 05:38:20;;;;;;;3.10;2.23;;;6.20;64.70;;;;;;5086740;27;46936;-69
2022/11/23 05:40:46;;;;;;;5.67;2.00;;;6.20;64.90;;;;;;5080868;27;46360;-69
2022/11/23 05:43:11;;;;;;;6.07;2.13;;;6.10;64.80;;;;;;5086448;27;46551;-70
2022/11/23 05:45:37;;;;;;;4.10;2.10;;;6.10;64.20;;;;;;5084658;27;46461;-70
2022/11/23 05:48:03;;;;;;;4.13;2.07;;;6.10;65.30;;;;;;5089742;27;46445;-71
2022/11/23 05:50:29;;;;;;;3.40;1.60;;;6.10;65.30;;;;;;5084817;27;46773;-69
2022/11/23 05:52:58;;;;;;;4.20;2.00;;;6.10;65.10;;;;;;5085629;27;47596;-70
2022/11/23 05:55:25;;;;;;;4.57;2.10;;;6.10;64.00;;;;;;5084066;27;46437;-69
2022/11/23 05:57:51;;;;;;;4.97;1.53;;;6.10;65.10;;;;;;5087151;27;46472;-68
2022/11/23 06:00:17;;;;;;;3.30;1.77;;;6.00;65.10;;;;;;5087240;27;46425;-69
2022/11/23 06:02:42;;;;;;;4.77;2.30;;;6.00;65.00;;;;;;5084848;27;47410;-70
2022/11/23 06:05:09;;;;;;;4.10;2.20;;;6.00;65.00;;;;;;5084305;27;46398;-70
2022/11/23 06:07:35;;;;;;;13.97;3.53;;;6.00;65.20;;;;;;5082101;27;46893;-69
2022/11/23 06:10:03;;;;;;;5.40;2.63;;;6.00;65.00;;;;;;5085630;27;46984;-70
2022/11/23 06:12:29;;;;;;;4.37;2.47;;;6.00;65.00;;;;;;5075676;27;47205;-69
2022/11/23 06:14:55;;;;;;;3.43;2.40;;;5.80;64.80;;;;;;5084106;27;46409;-70
2022/11/23 06:17:21;;;;;;;6.27;2.60;;;5.90;66.10;;;;;;5083476;27;46342;-69
2022/11/23 06:19:46;;;;;;;5.23;1.70;;;5.90;66.10;;;;;;5081912;27;46079;-69
2022/11/23 06:22:12;;;;;;;3.07;1.50;;;5.90;66.00;;;;;;5087984;27;46312;-69
2022/11/23 06:24:38;;;;;;;6.70;2.30;;;5.90;65.00;;;;;;5087293;27;46566;-71
2022/11/23 06:27:03;;;;;;;7.07;2.10;;;5.80;66.00;;;;;;5084617;27;46170;-70
2022/11/23 06:29:29;;;;;;;4.23;1.90;;;5.80;64.90;;;;;;5086282;27;46579;-69
2022/11/23 06:31:54;;;;;;;3.30;1.87;;;5.80;66.00;;;;;;5083565;27;48117;-68
2022/11/23 06:34:20;;;;;;;4.63;2.00;;;5.80;65.90;;;;;;5084284;27;46429;-70
2022/11/23 06:36:46;;;;;;;5.17;2.20;;;5.80;65.80;;;;;;5084730;27;46444;-70
2022/11/23 06:39:12;;;;;;;4.83;2.20;;;5.90;65.80;;;;;;5082410;27;46422;-70
2022/11/23 06:41:38;;;;;;;4.10;2.30;;;5.90;65.70;;;;;;5080481;27;46675;-69
2022/11/23 06:44:04;;;;;;;3.93;2.00;;;6.00;64.60;;;;;;5086595;27;46464;-70
2022/11/23 06:46:30;;;;;;;6.53;3.00;;;5.90;65.50;;;;;;5083647;27;46085;-70
2022/11/23 06:48:56;;;;;;;5.33;2.50;;;5.90;64.70;;;;;;5085606;27;46963;-70
2022/11/23 06:51:22;;;;;;;8.20;2.07;;;6.00;65.80;;;;;;5089261;27;46396;-69
2022/11/23 06:53:47;;;;;;;5.77;1.80;;;6.00;66.40;;;;;;5085612;27;46480;-69
2022/11/23 06:56:13;;;;;;;4.33;2.40;;;5.90;65.10;;;;;;5086768;27;46503;-69
2022/11/23 06:58:39;;;;;;;5.70;2.37;;;6.00;66.10;;;;;;5091998;27;46880;-69
2022/11/23 07:01:07;;;;;;;7.23;3.63;;;6.00;65.90;;;;;;5089303;27;46469;-69
2022/11/23 07:03:34;;;;;;;9.23;3.10;;;6.00;65.70;;;;;;5086811;27;46654;-71
2022/11/23 07:06:07;;;;;;;6.90;2.80;;;6.10;64.60;;;;;;5087983;27;46287;-70
2022/11/23 07:08:34;;;;;;;3.13;2.00;;;6.10;65.40;;;;;;5091722;27;46361;-70
2022/11/23 07:11:05;;;;;;;4.53;2.10;;;6.10;65.60;;;;;;5090792;27;46466;-69
2022/11/23 07:13:31;;;;;;;7.43;2.50;;;6.20;65.60;;;;;;5085043;27;46466;-70
2022/11/23 07:15:58;;;;;;;5.00;3.00;;;6.30;64.40;;;;;;5079884;27;46439;-68
2022/11/23 07:18:23;;;;;;;8.70;3.30;;;6.30;65.10;;;;;;5088750;27;46785;-70
2022/11/23 07:20:49;;;;;;;5.70;2.67;;;6.40;65.10;;;;;;5085921;27;46499;-70
2022/11/23 07:23:15;;;;;;;3.47;2.20;;;6.50;65.10;;;;;;5084878;27;46421;-70
2022/11/23 07:25:41;;;;;;;3.83;2.30;;;6.50;63.70;;;;;;5088956;27;46470;-70
2022/11/23 07:28:07;;;;;;;5.70;2.33;;;6.60;64.70;;;;;;5086236;27;46308;-69
2022/11/23 07:30:34;;;;;;;5.13;2.30;;;6.60;64.60;;;;;;5087885;27;48098;-70
2022/11/23 07:33:05;;;;;;;5.23;2.03;;;6.80;64.50;;;;;;5085200;27;46625;-68
2022/11/23 07:35:34;;;;;;;10.90;3.00;;;7.10;63.30;;;;;;5085824;27;46546;-68
2022/11/23 07:38:01;;;;;;;7.50;2.70;;;6.90;63.80;;;;;;5087394;27;46523;-68
2022/11/23 07:40:27;;;;;;;7.10;2.30;;;7.00;63.60;;;;;;5088451;27;46369;-68
2022/11/23 07:42:58;;;;;;;6.00;2.47;;;7.10;63.40;;;;;;5085074;27;46505;-67
2022/11/23 07:45:23;;;;;;;6.90;2.27;;;7.10;61.90;;;;;;5084256;27;46521;-67
2022/11/23 07:48:01;;;;;;;3.53;1.60;;;7.10;63.10;;;;;;5085360;27;46413;-68
2022/11/23 07:50:27;;;;;;;4.43;2.00;;;7.10;63.00;;;;;;5086293;27;47174;-70
2022/11/23 07:52:53;;;;;;;5.17;1.83;;;7.10;63.30;;;;;;5085503;27;46425;-68
2022/11/23 07:55:19;;;;;;;3.80;1.50;;;7.10;63.40;;;;;;5058760;27;46740;-70
2022/11/23 07:57:45;;;;;;;4.23;1.60;;;7.00;63.60;;;;;;5086852;27;46731;-68
2022/11/23 08:00:11;;;;;;;3.30;1.23;;;7.00;63.90;;;;;;5081591;27;46348;-68
2022/11/23 08:02:37;;;;;;;2.90;1.80;;;6.90;64.10;;;;;;5084260;27;46422;-69
2022/11/23 08:05:04;;;;;;;5.00;1.80;;;6.70;63.50;;;;;;5087716;27;46421;-69
2022/11/23 08:07:29;;;;;;;4.50;1.70;;;6.60;64.80;;;;;;5087147;27;46714;-67
2022/11/23 08:09:55;;;;;;;4.80;1.43;;;6.60;64.90;;;;;;5088134;27;46566;-67
2022/11/23 08:12:21;;;;;;;4.47;1.70;;;6.40;65.20;;;;;;5090009;27;46466;-68
2022/11/23 08:14:47;;;;;;;9.20;2.50;;;6.40;64.40;;;;;;5088958;27;46461;-67
2022/11/23 08:17:13;;;;;;;4.03;2.00;;;6.40;65.60;;;;;;5087303;27;46423;-68
2022/11/23 08:19:38;;;;;;;4.17;1.47;;;6.40;65.60;;;;;;5088792;27;47277;-66
2022/11/23 08:22:04;;;;;;;3.93;1.37;;;6.40;65.50;;;;;;5087607;27;46315;-68
2022/11/23 08:24:30;;;;;;;2.93;1.60;;;6.40;65.50;;;;;;5084990;27;46943;-67
2022/11/23 08:26:55;;;;;;;5.63;1.70;;;6.50;65.30;;;;;;5086728;27;46646;-68
2022/11/23 08:29:21;;;;;;;3.40;1.20;;;6.60;65.10;;;;;;5088163;27;48001;-67
2022/11/23 08:31:47;;;;;;;2.57;1.67;;;6.60;64.70;;;;;;5082636;27;46376;-67
2022/11/23 08:34:13;;;;;;;6.37;1.50;;;6.70;63.70;;;;;;5085723;27;46671;-68
2022/11/23 08:36:38;;;;;;;2.50;1.50;;;6.70;64.70;;;;;;5085044;27;46707;-68
2022/11/23 08:39:04;;;;;;;5.20;1.60;;;6.80;64.60;;;;;;5084322;27;46551;-69
2022/11/23 08:41:30;;;;;;;4.40;1.40;;;6.80;64.60;;;;;;5088292;27;46340;-67
2022/11/23 08:43:55;;;;;;;6.33;1.53;;;6.80;64.60;;;;;;5087011;27;46574;-67
2022/11/23 08:46:21;;;;;;;4.80;1.47;;;6.80;63.50;;;;;;5083517;27;46377;-66
2022/11/23 08:48:47;;;;;;;8.53;3.60;;;6.80;64.60;;;;;;5084260;27;46413;-67
2022/11/23 08:51:12;;;;;;;8.80;2.80;;;6.90;64.70;;;;;;5084246;27;46360;-68
2022/11/23 08:53:38;;;;;;;20.55;10.30;;;6.90;64.40;;;;;;5085534;27;46664;-68
2022/11/23 08:56:06;;;;;;;8.80;3.80;;;6.90;63.10;;;;;;5085782;27;46490;-67
2022/11/23 08:58:31;;;;;;;4.30;1.27;;;7.00;64.50;;;;;;5086873;27;46484;-67
2022/11/23 09:00:57;;;;;;;4.17;2.23;;;7.10;64.20;;;;;;5082671;27;46453;-68
2022/11/23 09:03:23;;;;;;;32.97;12.47;;;7.10;64.00;;;;;;5083439;27;46824;-67
2022/11/23 09:05:50;;;;;;;7.27;1.80;;;7.20;62.90;;;;;;5084333;27;46668;-67
2022/11/23 09:08:16;;;;;;;3.80;1.40;;;7.20;63.60;;;;;;5085396;27;47550;-68
2022/11/23 09:10:41;;;;;;;4.90;1.57;;;7.20;63.60;;;;;;5087745;27;46644;-67
2022/11/23 09:13:07;;;;;;;5.50;1.50;;;7.30;63.70;;;;;;5085920;27;46334;-68
2022/11/23 09:15:33;;;;;;;2.63;1.30;;;7.30;62.00;;;;;;5086232;27;46454;-66
2022/11/23 09:17:59;;;;;;;8.33;1.17;;;7.40;63.20;;;;;;5085138;27;47471;-67
2022/11/23 09:20:24;;;;;;;5.03;1.17;;;7.40;62.20;;;;;;5084564;27;46360;-67
2022/11/23 09:22:51;;;;;;;2.80;1.13;;;7.60;63.40;;;;;;5081481;27;47006;-71
2022/11/23 09:25:17;;;;;;;2.90;1.23;;;7.70;62.30;;;;;;5084559;27;46413;-67
2022/11/23 09:27:43;;;;;;;17.33;8.67;;;7.70;63.10;;;;;;5086883;27;47346;-68
2022/11/23 09:30:09;;;;;;;2.37;1.20;;;7.70;62.80;;;;;;5088700;27;46534;-69
2022/11/23 09:32:35;;;;;;;4.40;2.13;;;7.80;62.50;;;;;;5077405;27;46494;-66
2022/11/23 09:35:01;;;;;;;3.10;1.20;;;7.80;62.40;;;;;;5079174;27;46668;-69
2022/11/23 09:37:27;;;;;;;6.53;1.50;;;7.90;60.90;;;;;;5082465;27;48149;-67
2022/11/23 09:39:53;;;;;;;4.70;1.50;;;7.90;62.00;;;;;;5084524;27;46453;-67
2022/11/23 09:43:06;;;;;;;3.60;1.10;;;8.00;61.90;;;;;;5078923;27;46431;-68
2022/11/23 09:45:41;;;;;;;9.50;1.60;;;8.00;60.50;;;;;;5041984;28;46520;-67
2022/11/23 09:48:41;;;;;;;10.20;1.33;;;8.10;61.70;;;;;;5082342;27;46407;-67
2022/11/23 09:51:09;;;;;;;4.00;1.40;;;8.20;61.30;;;;;;5073409;27;46764;-68
2022/11/23 09:53:54;;;;;;;5.60;1.83;;;8.20;60.00;;;;;;5084665;27;46490;-69
2022/11/23 09:56:25;;;;;;;9.43;2.60;;;8.30;60.00;;;;;;5085800;27;46494;-69
2022/11/23 09:58:55;;;;;;;5.07;1.40;;;8.30;60.60;;;;;;5080678;27;46258;-68
2022/11/23 10:01:21;;;;;;;3.87;1.40;;;8.40;60.60;;;;;;5086201;27;46427;-68
2022/11/23 10:03:47;;;;;;;3.43;1.20;;;8.40;60.10;;;;;;5087692;27;46454;-69
2022/11/23 10:06:16;;;;;;;8.17;1.43;;;8.40;58.80;;;;;;5083444;27;46413;-67
2022/11/23 10:09:00;;;;;;;3.77;1.50;;;8.50;59.80;;;;;;5085063;27;46635;-68
2022/11/23 10:11:47;;;;;;;4.80;1.70;;;8.60;59.80;;;;;;5081932;27;46711;-68
2022/11/23 10:14:45;;;;;;;8.60;1.50;;;8.60;57.80;;;;;;5084341;27;46450;-67
2022/11/23 10:17:41;;;;;;;2.50;1.23;;;8.60;59.00;;;;;;5082387;27;46724;-67
2022/11/23 10:20:45;;;;;;;4.47;1.43;;;8.70;59.00;;;;;;5075698;27;47131;-68
2022/11/23 10:23:23;;;;;;;5.30;1.30;;;8.70;58.80;;;;;;5082037;27;46324;-67
2022/11/23 10:25:51;;;;;;;4.67;1.27;;;8.80;57.70;;;;;;5084734;27;46754;-67
2022/11/23 10:28:20;;;;;;;3.50;1.50;;;8.80;58.80;;;;;;5084715;27;46443;-67
2022/11/23 10:31:18;;;;;;;5.40;1.37;;;8.80;58.80;;;;;;5079515;27;47169;-67
2022/11/23 10:33:47;;;;;;;6.13;1.30;;;8.80;58.40;;;;;;5083825;27;46455;-70
2022/11/23 10:36:13;;;;;;;2.83;1.20;;;8.90;57.20;;;;;;5083924;27;46499;-68
2022/11/23 10:38:40;;;;;;;8.00;1.50;;;9.00;58.00;;;;;;5086611;27;46496;-68
2022/11/23 10:41:11;;;;;;;5.70;1.53;;;9.00;57.70;;;;;;5080168;27;46658;-68
2022/11/23 10:43:42;;;;;;;4.73;1.00;;;9.00;57.60;;;;;;5077709;27;46843;-68
2022/11/23 10:46:30;;;;;;;1.63;0.90;;;9.10;56.10;;;;;;5078892;27;46395;-68
2022/11/23 10:49:13;;;;;;;3.40;1.17;;;9.00;56.50;;;;;;5081376;27;46576;-69
2022/11/23 10:51:47;;;;;;;3.77;1.20;;;9.00;56.60;;;;;;5084901;27;47655;-67
2022/11/23 10:54:37;;;;;;;3.73;1.00;;;9.10;54.80;;;;;;5086315;27;46161;-68
2022/11/23 10:57:26;;;;;;;7.17;1.30;;;9.10;55.60;;;;;;5078376;27;45898;-67
2022/11/23 10:59:59;;;;;;;3.40;1.23;;;9.10;55.50;;;;;;5079917;27;46707;-69
2022/11/23 11:02:26;;;;;;;4.33;0.97;;;9.10;55.80;;;;;;5083992;27;46543;-68
2022/11/23 11:05:20;;;;;;;2.50;1.30;;;9.20;54.40;;;;;;5080485;27;45808;-66
2022/11/23 11:07:45;;;;;;;3.20;1.00;;;9.20;55.20;;;;;;5081474;27;46426;-69
2022/11/23 11:10:41;;;;;;;5.73;1.50;;;9.30;55.00;;;;;;5077050;27;46502;-68
2022/11/23 11:13:31;;;;;;;4.90;1.37;;;9.30;54.70;;;;;;5081495;27;46551;-69
2022/11/23 11:16:02;;;;;;;3.50;1.50;;;9.30;52.30;;;;;;5079552;27;46955;-68
2022/11/23 11:18:33;;;;;;;4.93;1.43;;;9.20;53.10;;;;;;5080972;27;46361;-67
2022/11/23 11:21:03;;;;;;;3.83;1.00;;;9.20;53.50;;;;;;5095399;27;45940;-68
2022/11/23 11:23:30;;;;;;;3.90;1.17;;;9.30;53.60;;;;;;5084572;27;47801;-66
2022/11/23 11:26:21;;;;;;;2.57;1.10;;;9.30;51.80;;;;;;5082625;27;46465;-67
2022/11/23 11:28:50;;;;;;;4.50;1.30;;;9.30;52.90;;;;;;5078364;27;46491;-66
2022/11/23 11:31:42;;;;;;;2.80;1.00;;;9.30;53.20;;;;;;5084216;27;46774;-66
2022/11/23 11:34:36;;;;;;;2.10;0.90;;;9.30;51.40;;;;;;5085053;27;46832;-66
2022/11/23 11:37:16;;;;;;;2.80;0.97;;;9.30;52.30;;;;;;5079949;27;46667;-66
2022/11/23 11:39:48;;;;;;;4.40;1.00;;;9.30;52.00;;;;;;5088422;27;46451;-67
2022/11/23 11:42:29;;;;;;;3.03;1.10;;;9.30;52.00;;;;;;5081705;27;46034;-67
2022/11/23 11:44:57;;;;;;;3.40;1.10;;;9.40;51.10;;;;;;5081618;27;46562;-67
2022/11/23 11:47:42;;;;;;;4.13;0.90;;;9.40;52.20;;;;;;5086333;27;46435;-66
2022/11/23 11:50:29;;;;;;;4.07;1.40;;;9.40;52.10;;;;;;5083743;27;46886;-68
2022/11/23 11:53:00;;;;;;;2.70;0.80;;;9.40;52.10;;;;;;5091467;27;46373;-69
2022/11/23 11:55:58;;;;;;;4.00;1.37;;;9.50;51.10;;;;;;5090413;27;46585;-66
2022/11/23 11:58:27;;;;;;;2.50;0.90;;;9.40;51.70;;;;;;5080250;27;46221;-67
2022/11/23 12:01:06;;;;;;;4.80;1.50;;;9.40;52.00;;;;;;5092013;27;46673;-69
2022/11/23 12:03:51;;;;;;;3.87;1.10;;;9.40;51.50;;;;;;5092347;27;46404;-66
2022/11/23 12:06:27;;;;;;;4.00;0.93;;;9.40;50.70;;;;;;5090725;27;46424;-68
2022/11/23 12:09:05;;;;;;;4.60;1.30;;;9.50;51.60;;;;;;5092783;27;46527;-67
2022/11/23 12:11:31;;;;;;;101.00;53.87;;;9.50;51.10;;;;;;5089627;27;46007;-66
2022/11/23 12:14:03;;;;;;;2.90;1.67;;;9.50;50.50;;;;;;5091999;27;45956;-68
2022/11/23 12:16:55;;;;;;;5.00;1.50;;;9.50;50.20;;;;;;5092957;27;47159;-66
2022/11/23 12:19:33;;;;;;;4.50;1.40;;;9.50;50.00;;;;;;5090527;27;46411;-68
2022/11/23 12:22:16;;;;;;;3.37;1.20;;;9.50;49.50;;;;;;5093293;27;46321;-67
2022/11/23 12:25:13;;;;;;;4.70;1.30;;;9.50;47.50;;;;;;5090414;27;46650;-66
2022/11/23 12:27:44;;;;;;;2.60;0.80;;;9.50;48.50;;;;;;5087688;27;47390;-68
2022/11/23 12:30:15;;;;;;;3.20;1.30;;;9.50;48.50;;;;;;5092949;27;46522;-65
2022/11/23 12:33:14;;;;;;;3.00;1.77;;;9.50;48.30;;;;;;5092504;27;45898;-67
2022/11/23 12:36:04;;;;;;;10.90;3.60;;;9.50;45.50;;;;;;5090902;27;46398;-66
2022/11/23 12:38:50;;;;;;;6.13;1.40;;;9.40;46.40;;;;;;5094726;27;46474;-66
2022/11/23 12:41:31;;;;;;;6.03;1.00;;;9.40;46.70;;;;;;5089546;27;46542;-68
2022/11/23 12:44:31;;;;;;;3.30;1.10;;;9.40;46.80;;;;;;5092438;27;46431;-67
2022/11/23 12:47:08;;;;;;;5.80;1.80;;;9.40;46.80;;;;;;5090858;27;46616;-66
2022/11/23 12:49:45;;;;;;;7.40;2.10;;;9.50;47.10;;;;;;5085622;27;46598;-69
2022/11/23 12:52:29;;;;;;;2.90;1.27;;;9.50;46.20;;;;;;5091277;27;46473;-68
2022/11/23 12:55:14;;;;;;;6.73;1.90;;;9.50;45.50;;;;;;5084260;27;46354;-66
2022/11/23 12:58:09;;;;;;;1.83;1.00;;;9.50;45.10;;;;;;5087595;27;46402;-67
2022/11/23 13:00:45;;;;;;;5.37;1.20;;;9.50;45.10;;;;;;5087014;27;46481;-66
2022/11/23 13:03:48;;;;;;;6.43;2.43;;;9.50;45.30;;;;;;5085693;27;46397;-65
2022/11/23 13:06:31;;;;;;;4.20;1.47;;;9.50;44.90;;;;;;5117770;27;46599;-66
2022/11/23 13:09:09;;;;;;;2.40;1.33;;;9.40;44.70;;;;;;5085316;27;45959;-66